Time;durP1;ratioP1;P1;durP2;ratioP2;P2;SDS_P1;SDS_P2;PMS_P1;PMS_P2;Temp;Humidity;BMP_temperature;BMP_pressure;BME280_temperature;BME280_humidity;BME280_pressure;Samples;Min_cycle;Max_cycle;Signal;HPM_P1;HPM_P2
2024/01/14 00:00:17;;;;;;;42.17;14.60;;;;;;;-5.92;100.00;98325.34;4485536;31;20431;-72
2024/01/14 00:02:46;;;;;;;38.70;15.77;;;;;;;-5.95;100.00;98329.69;4485735;32;20469;-72
2024/01/14 00:05:14;;;;;;;53.47;15.25;;;;;;;-5.88;100.00;98326.91;4485611;31;20100;-72
2024/01/14 00:07:41;;;;;;;42.42;13.82;;;;;;;-5.92;100.00;98332.13;4485680;31;20397;-72
2024/01/14 00:10:11;;;;;;;34.08;14.15;;;;;;;-5.90;100.00;98327.84;4485645;31;20502;-72
2024/01/14 00:12:39;;;;;;;45.95;16.70;;;;;;;-5.96;100.00;98323.75;4485671;31;20148;-72
2024/01/14 00:15:07;;;;;;;48.22;16.75;;;;;;;-5.90;100.00;98322.75;4485867;31;20148;-72
2024/01/14 00:17:37;;;;;;;41.70;17.17;;;;;;;-5.92;100.00;98319.38;4486551;31;20096;-72
2024/01/14 00:20:06;;;;;;;42.80;16.10;;;;;;;-5.97;100.00;98319.56;4501697;31;20088;-72
2024/01/14 00:22:33;;;;;;;52.28;16.35;;;;;;;-6.00;100.00;98321.38;4501402;31;20443;-72
2024/01/14 00:25:01;;;;;;;47.60;16.12;;;;;;;-6.01;100.00;98310.34;4501527;31;20088;-72
2024/01/14 00:27:29;;;;;;;29.98;13.52;;;;;;;-6.09;100.00;98312.28;4501364;31;20479;-72
2024/01/14 00:29:57;;;;;;;40.17;14.25;;;;;;;-6.09;100.00;98312.28;4495871;31;20500;-72
2024/01/14 00:32:26;;;;;;;37.00;13.48;;;;;;;-6.07;100.00;98316.47;4485375;31;20437;-72
2024/01/14 00:34:53;;;;;;;42.85;15.02;;;;;;;-6.09;100.00;98315.66;4485485;31;20179;-72
2024/01/14 00:37:21;;;;;;;38.35;14.30;;;;;;;-6.09;100.00;98309.72;4485427;31;20126;-72
2024/01/14 00:39:49;;;;;;;37.45;12.02;;;;;;;-6.08;100.00;98308.84;4485437;31;20141;-72
2024/01/14 00:42:16;;;;;;;42.53;13.45;;;;;;;-6.03;100.00;98290.88;4485305;31;20097;-72
2024/01/14 00:44:45;;;;;;;43.58;15.20;;;;;;;-6.02;100.00;98293.37;4485514;31;20084;-72
2024/01/14 00:47:13;;;;;;;46.10;13.75;;;;;;;-6.02;100.00;98290.81;4485302;32;20147;-72
2024/01/14 00:49:40;;;;;;;32.78;11.55;;;;;;;-6.09;100.00;98289.31;4485357;31;20093;-72
2024/01/14 00:52:08;;;;;;;36.55;14.90;;;;;;;-6.04;100.00;98297.69;4485351;31;20439;-72
2024/01/14 00:54:35;;;;;;;36.45;12.20;;;;;;;-6.07;100.00;98290.09;4485479;31;20123;-72
2024/01/14 00:57:04;;;;;;;37.42;12.25;;;;;;;-6.04;100.00;98289.19;4485367;31;20486;-72
2024/01/14 00:59:32;;;;;;;36.00;12.73;;;;;;;-6.00;100.00;98278.84;4485711;31;20168;-72
2024/01/14 01:01:59;;;;;;;39.58;12.75;;;;;;;-6.03;100.00;98278.13;4485039;31;20123;-72
2024/01/14 01:04:27;;;;;;;38.22;14.90;;;;;;;-6.06;100.00;98284.13;4485546;31;20097;-72
2024/01/14 01:06:55;;;;;;;30.17;12.20;;;;;;;-6.05;100.00;98277.34;4485461;31;20108;-72
2024/01/14 01:09:24;;;;;;;35.28;12.60;;;;;;;-5.99;100.00;98275.44;4485307;31;20144;-72
2024/01/14 01:11:51;;;;;;;36.17;14.02;;;;;;;-5.98;100.00;98278.81;4485184;32;20100;-72
2024/01/14 01:14:19;;;;;;;39.30;13.75;;;;;;;-6.05;100.00;98270.50;4485308;31;20096;-72
2024/01/14 01:16:48;;;;;;;35.75;11.63;;;;;;;-6.03;100.00;98271.28;4485148;31;20084;-72
2024/01/14 01:19:15;;;;;;;39.95;12.55;;;;;;;-5.98;100.00;98268.59;4496982;31;20095;-72
2024/01/14 01:21:43;;;;;;;30.52;11.82;;;;;;;-5.96;100.00;98266.81;4500769;31;20107;-72
2024/01/14 01:24:13;;;;;;;26.77;11.43;;;;;;;-5.93;100.00;98259.06;4501116;31;20087;-72
2024/01/14 01:26:41;;;;;;;29.63;10.70;;;;;;;-5.86;100.00;98257.16;4500783;31;20087;-72
2024/01/14 01:29:08;;;;;;;27.65;10.15;;;;;;;-5.75;100.00;98260.22;4501001;31;20100;-72
2024/01/14 01:31:36;;;;;;;31.35;12.00;;;;;;;-5.71;100.00;98254.97;4484846;32;20089;-72
2024/01/14 01:34:15;;;;;;;37.13;12.52;;;;;;;-5.70;100.00;98251.53;4485413;31;20153;-72
2024/01/14 01:36:46;;;;;;;36.97;10.38;;;;;;;-5.63;100.00;98243.66;4485074;31;20454;-72
2024/01/14 01:39:14;;;;;;;32.88;13.68;;;;;;;-5.67;100.00;98242.94;4485137;31;20114;-72
2024/01/14 01:41:43;;;;;;;30.70;10.93;;;;;;;-5.68;100.00;98235.34;4484894;31;20089;-72
2024/01/14 01:44:11;;;;;;;35.83;12.02;;;;;;;-5.64;100.00;98232.63;4485076;31;20114;-72
2024/01/14 01:46:39;;;;;;;31.87;12.13;;;;;;;-5.65;100.00;98230.97;4485212;31;20118;-72
2024/01/14 01:49:06;;;;;;;35.63;10.13;;;;;;;-5.65;100.00;98213.09;4485255;31;20129;-72
2024/01/14 01:51:35;;;;;;;31.05;11.18;;;;;;;-5.63;100.00;98213.91;4485018;31;20115;-72
2024/01/14 01:54:03;;;;;;;28.35;10.77;;;;;;;-5.58;100.00;98206.91;4483796;32;20109;-72
2024/01/14 01:56:31;;;;;;;41.70;11.63;;;;;;;-5.58;100.00;98196.72;4484889;31;20110;-72
2024/01/14 01:58:59;;;;;;;27.73;10.38;;;;;;;-5.63;100.00;98196.03;4483462;32;20516;-72
2024/01/14 02:01:27;;;;;;;27.15;11.12;;;;;;;-5.59;100.00;98205.25;4484961;31;20197;-72
2024/01/14 02:03:55;;;;;;;37.67;11.35;;;;;;;-5.59;100.00;98209.53;4483652;32;20104;-72
2024/01/14 02:06:24;;;;;;;26.52;9.88;;;;;;;-5.62;100.00;98210.44;4485019;32;20088;-72
2024/01/14 02:08:51;;;;;;;24.65;10.75;;;;;;;-5.64;100.00;98208.84;4483943;32;20156;-72
2024/01/14 02:11:19;;;;;;;32.78;11.10;;;;;;;-5.61;100.00;98206.19;4485214;31;20108;-72
2024/01/14 02:13:47;;;;;;;37.00;11.10;;;;;;;-5.60;100.00;98213.81;4484927;31;20445;-72
2024/01/14 02:16:15;;;;;;;29.27;12.23;;;;;;;-5.55;100.00;98211.09;4483740;32;20096;-72
2024/01/14 02:18:45;;;;;;;21.50;9.80;;;;;;;-5.54;100.00;98198.28;4493146;31;20437;-72
2024/01/14 02:21:17;;;;;;;29.70;11.32;;;;;;;-5.57;100.00;98198.38;4500525;31;20099;-72
2024/01/14 02:23:47;;;;;;;32.17;11.38;;;;;;;-5.59;100.00;98204.41;4500329;31;20171;-72
2024/01/14 02:26:15;;;;;;;19.67;8.52;;;;;;;-5.62;100.00;98199.41;4499499;31;20087;-72
2024/01/14 02:28:42;;;;;;;27.65;10.32;;;;;;;-5.63;100.00;98205.41;4499152;31;20114;-72
2024/01/14 02:31:09;;;;;;;29.50;11.65;;;;;;;-5.64;100.00;98193.53;4487464;31;20112;-72
2024/01/14 02:33:36;;;;;;;22.00;9.48;;;;;;;-5.73;100.00;98187.03;4484588;31;20471;-72
2024/01/14 02:36:04;;;;;;;26.25;10.13;;;;;;;-5.76;100.00;98185.38;4484711;31;20569;-72
2024/01/14 02:38:31;;;;;;;30.40;9.68;;;;;;;-5.79;100.00;98182.13;4484978;31;20097;-72
2024/01/14 02:40:59;;;;;;;31.40;10.63;;;;;;;-5.77;100.00;98188.00;4484557;32;20513;-72
2024/01/14 02:43:26;;;;;;;34.85;11.07;;;;;;;-5.84;100.00;98176.31;4484631;31;20061;-72
2024/01/14 02:45:53;;;;;;;28.38;8.98;;;;;;;-5.81;100.00;98173.66;4484707;31;20104;-72
2024/01/14 02:48:21;;;;;;;28.50;11.05;;;;;;;-5.78;100.00;98176.16;4484799;31;20149;-72
2024/01/14 02:50:48;;;;;;;31.40;11.38;;;;;;;-5.85;100.00;98177.22;4485065;31;20092;-72
2024/01/14 02:53:15;;;;;;;26.17;11.88;;;;;;;-5.88;100.00;98178.16;4484471;31;20160;-72
2024/01/14 02:55:42;;;;;;;33.83;10.80;;;;;;;-5.90;100.00;98170.53;4484847;31;20096;-72
2024/01/14 02:58:09;;;;;;;36.83;13.30;;;;;;;-5.97;100.00;98169.09;4484627;31;20156;-72
2024/01/14 03:00:36;;;;;;;34.00;11.48;;;;;;;-5.95;100.00;98166.47;4484712;32;20808;-72
2024/01/14 03:03:04;;;;;;;22.00;8.93;;;;;;;-6.04;100.00;98160.00;4484362;31;20100;-72
2024/01/14 03:05:31;;;;;;;33.10;11.63;;;;;;;-6.00;100.00;98158.16;4484480;31;20532;-72
2024/01/14 03:07:58;;;;;;;31.23;12.57;;;;;;;-6.03;100.00;98164.19;4484401;31;20563;-72
2024/01/14 03:10:25;;;;;;;35.38;11.85;;;;;;;-6.08;100.00;98160.97;4483351;31;20450;-72
2024/01/14 03:12:52;;;;;;;31.95;12.37;;;;;;;-6.09;100.00;98149.09;4484483;32;20146;-72
2024/01/14 03:15:21;;;;;;;36.15;12.32;;;;;;;-6.13;100.00;98137.31;4484393;31;20111;-72
2024/01/14 03:17:48;;;;;;;31.27;12.55;;;;;;;-6.09;100.00;98136.34;4486464;31;20136;-72
2024/01/14 03:20:16;;;;;;;23.05;9.93;;;;;;;-6.09;100.00;98123.59;4500182;31;20158;-72
2024/01/14 03:22:44;;;;;;;34.80;12.00;;;;;;;-6.10;100.00;98139.75;4499830;31;20116;-72
2024/01/14 03:25:11;;;;;;;32.70;11.52;;;;;;;-6.06;100.00;98141.34;4500040;31;20088;-72
2024/01/14 03:27:39;;;;;;;24.73;10.45;;;;;;;-6.10;100.00;98137.22;4500148;31;20393;-72
2024/01/14 03:30:07;;;;;;;28.83;10.77;;;;;;;-6.11;100.00;98130.47;4499806;31;20123;-72
2024/01/14 03:32:35;;;;;;;30.08;10.52;;;;;;;-6.10;100.00;98144.88;4499634;31;20084;-72
2024/01/14 03:35:03;;;;;;;27.25;9.70;;;;;;;-6.17;100.00;98135.78;4499637;31;20088;-72
2024/01/14 03:37:30;;;;;;;24.87;8.88;;;;;;;-6.17;100.00;98136.59;4499766;31;20507;-72
2024/01/14 03:39:57;;;;;;;34.80;10.15;;;;;;;-6.22;100.00;98127.41;4499911;31;20092;-72
2024/01/14 03:42:26;;;;;;;21.87;9.98;;;;;;;-6.20;100.00;98129.03;4499509;31;20163;-72
2024/01/14 03:44:53;;;;;;;22.27;10.85;;;;;;;-6.20;100.00;98125.66;4499821;31;20118;-72
2024/01/14 03:47:20;;;;;;;19.00;7.15;;;;;;;-6.25;100.00;98126.66;4499647;31;20089;-72
2024/01/14 03:49:48;;;;;;;21.65;6.62;;;;;;;-6.12;100.00;98114.31;4499510;31;20105;-72
2024/01/14 03:52:16;;;;;;;13.98;5.95;;;;;;;-5.87;100.00;98113.50;4499867;31;20096;-72
2024/01/14 03:54:43;;;;;;;18.92;6.57;;;;;;;-5.68;100.00;98116.25;4499403;31;20091;-72
2024/01/14 03:57:10;;;;;;;18.15;5.75;;;;;;;-5.55;100.00;98117.50;4499534;31;20160;-72
2024/01/14 03:59:39;;;;;;;15.60;7.28;;;;;;;-5.34;100.00;98125.31;4499528;31;20100;-72
2024/01/14 04:02:06;;;;;;;14.00;5.87;;;;;;;-5.27;100.00;98136.97;4499373;31;20084;-72
2024/01/14 04:04:34;;;;;;;14.23;5.37;;;;;;;-5.20;100.00;98132.47;4499314;31;20096;-72
2024/01/14 04:07:02;;;;;;;14.50;5.65;;;;;;;-5.11;100.00;98124.47;4499741;31;20088;-72
2024/01/14 04:09:31;;;;;;;17.87;7.18;;;;;;;-5.08;100.00;98123.53;4499209;31;20088;-72
2024/01/14 04:11:58;;;;;;;17.55;7.70;;;;;;;-5.07;100.00;98126.03;4499623;31;20457;-72
2024/01/14 04:14:26;;;;;;;22.77;7.35;;;;;;;-5.05;100.00;98111.47;4499220;31;20472;-72
2024/01/14 04:16:54;;;;;;;24.15;8.15;;;;;;;-5.06;100.00;98114.09;4499243;31;20477;-72
2024/01/14 04:19:21;;;;;;;17.02;6.80;;;;;;;-4.99;100.00;98113.00;4486763;31;20100;-72
2024/01/14 04:21:49;;;;;;;25.12;7.87;;;;;;;-4.95;100.00;98109.44;4485615;31;20432;-72
2024/01/14 04:24:16;;;;;;;16.33;6.35;;;;;;;-4.91;100.00;98110.97;4485748;31;20087;-72
2024/01/14 04:26:45;;;;;;;18.73;8.00;;;;;;;-4.96;100.00;98112.88;4485700;31;20553;-72
2024/01/14 04:29:12;;;;;;;20.55;6.78;;;;;;;-4.91;100.00;98110.16;4486220;31;20477;-72
2024/01/14 04:31:39;;;;;;;19.87;7.78;;;;;;;-4.97;100.00;98121.41;4501413;31;20118;-72
2024/01/14 04:34:07;;;;;;;21.12;7.05;;;;;;;-5.00;100.00;98121.53;4501264;31;20087;-71
2024/01/14 04:36:37;;;;;;;23.30;9.20;;;;;;;-5.12;100.00;98116.88;4501583;31;20440;-72
2024/01/14 04:39:04;;;;;;;17.87;8.45;;;;;;;-5.23;100.00;98125.75;4501416;31;20092;-72
2024/01/14 04:41:32;;;;;;;22.70;8.70;;;;;;;-5.39;100.00;98125.47;4501273;31;20111;-72
2024/01/14 04:43:59;;;;;;;20.48;8.48;;;;;;;-5.43;100.00;98113.69;4501250;31;20393;-72
2024/01/14 04:46:27;;;;;;;34.92;9.93;;;;;;;-5.48;100.00;98112.19;4501371;31;20152;-72
2024/01/14 04:48:55;;;;;;;21.30;7.95;;;;;;;-5.52;100.00;98112.28;4501186;31;20096;-72
2024/01/14 04:51:24;;;;;;;20.98;7.97;;;;;;;-5.57;100.00;98111.63;4501325;31;20147;-72
2024/01/14 04:53:51;;;;;;;19.95;8.07;;;;;;;-5.62;100.00;98103.28;4501112;31;20229;-72
2024/01/14 04:56:19;;;;;;;19.33;7.15;;;;;;;-5.51;100.00;98115.69;4501376;31;20458;-72
2024/01/14 04:58:46;;;;;;;23.50;7.65;;;;;;;-5.54;100.00;98113.22;4499895;31;20100;-72
2024/01/14 05:01:15;;;;;;;17.83;7.47;;;;;;;-5.49;100.00;98097.78;4501142;31;20099;-72
2024/01/14 05:03:43;;;;;;;22.65;8.65;;;;;;;-5.50;100.00;98091.00;4500971;31;20103;-72
2024/01/14 05:06:10;;;;;;;23.10;7.55;;;;;;;-5.48;100.00;98089.22;4501413;31;20104;-72
2024/01/14 05:08:41;;;;;;;18.10;7.75;;;;;;;-5.56;100.00;98087.75;4501471;31;20085;-72
2024/01/14 05:11:09;;;;;;;18.10;7.55;;;;;;;-5.53;100.00;98090.22;4501390;31;20597;-72
2024/01/14 05:13:37;;;;;;;26.60;8.15;;;;;;;-5.53;100.00;98081.72;4500061;31;20088;-72
2024/01/14 05:16:05;;;;;;;27.33;8.95;;;;;;;-5.57;100.00;98087.81;4501073;31;20148;-72
2024/01/14 05:18:33;;;;;;;23.52;9.93;;;;;;;-5.49;100.00;98085.84;4494048;31;20108;-72
2024/01/14 05:21:00;;;;;;;22.05;8.32;;;;;;;-5.48;100.00;98090.06;4485460;32;20160;-72
2024/01/14 05:23:28;;;;;;;25.58;8.43;;;;;;;-5.42;100.00;98105.16;4485170;31;20151;-72
2024/01/14 05:25:56;;;;;;;30.08;9.55;;;;;;;-5.49;100.00;98105.44;4485185;31;20093;-72
2024/01/14 05:28:24;;;;;;;28.90;9.35;;;;;;;-5.62;100.00;98102.47;4485351;31;20120;-72
2024/01/14 05:30:51;;;;;;;23.87;10.15;;;;;;;-5.68;100.00;98100.94;4496584;31;20118;-72
2024/01/14 05:33:19;;;;;;;24.17;9.80;;;;;;;-5.73;100.00;98106.22;4500073;31;20091;-72
2024/01/14 05:35:49;;;;;;;21.40;8.07;;;;;;;-5.69;100.00;98096.75;4499500;31;20099;-72
2024/01/14 05:38:16;;;;;;;17.85;7.68;;;;;;;-5.74;100.00;98103.72;4501190;31;20122;-72
2024/01/14 05:40:44;;;;;;;28.02;10.10;;;;;;;-5.70;100.00;98087.41;4500808;31;20096;-72
2024/01/14 05:43:11;;;;;;;23.05;8.88;;;;;;;-5.72;100.00;98084.09;4501295;31;20183;-72
2024/01/14 05:45:39;;;;;;;24.75;9.68;;;;;;;-5.69;100.00;98084.00;4501096;31;20118;-72
2024/01/14 05:48:08;;;;;;;24.95;9.55;;;;;;;-5.67;100.00;98087.31;4501001;31;20386;-72
2024/01/14 05:50:37;;;;;;;25.62;9.35;;;;;;;-5.65;100.00;98087.25;4501050;31;20076;-72
2024/01/14 05:53:06;;;;;;;29.48;9.35;;;;;;;-5.63;100.00;98093.97;4500919;31;20532;-72
2024/01/14 05:55:34;;;;;;;28.55;11.75;;;;;;;-5.58;100.00;98084.44;4500729;31;20597;-72
2024/01/14 05:58:01;;;;;;;29.90;9.80;;;;;;;-5.53;100.00;98082.56;4500968;31;20092;-72
2024/01/14 06:00:29;;;;;;;24.17;8.77;;;;;;;-5.48;100.00;98081.56;4500777;31;20156;-72
2024/01/14 06:02:57;;;;;;;32.42;11.20;;;;;;;-5.36;100.00;98088.78;4500548;31;20118;-72
2024/01/14 06:05:24;;;;;;;28.27;9.73;;;;;;;-5.29;100.00;98094.50;4500978;31;20100;-72
2024/01/14 06:07:51;;;;;;;27.10;9.95;;;;;;;-5.28;100.00;98089.34;4500644;31;20164;-72
2024/01/14 06:10:19;;;;;;;31.98;10.55;;;;;;;-5.31;100.00;98079.25;4499521;31;20469;-72
2024/01/14 06:12:46;;;;;;;27.33;9.38;;;;;;;-5.40;100.00;98092.34;4500613;31;20728;-72
2024/01/14 06:15:14;;;;;;;30.25;9.98;;;;;;;-5.29;100.00;98102.16;4500635;31;20144;-72
2024/01/14 06:17:41;;;;;;;33.97;10.25;;;;;;;-5.33;100.00;98106.53;4499126;31;20096;-72
2024/01/14 06:20:09;;;;;;;25.80;9.95;;;;;;;-5.40;100.00;98105.09;4484812;31;20088;-72
2024/01/14 06:22:37;;;;;;;30.00;9.27;;;;;;;-5.42;100.00;98109.41;4484821;31;20092;-72
2024/01/14 06:25:05;;;;;;;29.00;9.90;;;;;;;-5.37;100.00;98107.56;4485007;31;20096;-72
2024/01/14 06:27:32;;;;;;;28.25;10.15;;;;;;;-5.40;100.00;98112.75;4484850;31;20426;-72
2024/01/14 06:30:01;;;;;;;34.72;11.12;;;;;;;-5.34;100.00;98107.44;4490533;31;20796;-72
2024/01/14 06:32:31;;;;;;;25.45;10.00;;;;;;;-5.39;100.00;98099.09;4500486;31;20096;-72
2024/01/14 06:34:59;;;;;;;26.45;10.05;;;;;;;-5.39;100.00;98102.50;4500373;31;20096;-72
2024/01/14 06:37:26;;;;;;;28.10;9.48;;;;;;;-5.39;100.00;98094.00;4500324;31;20114;-72
2024/01/14 06:39:54;;;;;;;29.77;10.30;;;;;;;-5.37;100.00;98087.94;4500642;31;20114;-72
2024/01/14 06:42:23;;;;;;;23.73;8.80;;;;;;;-5.35;100.00;98093.81;4500599;31;20099;-72
2024/01/14 06:44:52;;;;;;;26.95;10.15;;;;;;;-5.40;100.00;98105.94;4499983;31;20122;-72
2024/01/14 06:47:19;;;;;;;26.27;8.00;;;;;;;-5.45;100.00;98097.63;4500352;31;20145;-72
2024/01/14 06:49:46;;;;;;;29.95;10.70;;;;;;;-5.44;100.00;98101.00;4500714;31;20172;-72
2024/01/14 06:52:26;;;;;;;24.63;10.07;;;;;;;-5.44;100.00;98104.38;4500330;31;20117;-72
2024/01/14 06:54:53;;;;;;;26.02;10.38;;;;;;;-5.45;100.00;98105.28;4500669;31;20096;-72
2024/01/14 06:57:22;;;;;;;25.17;10.27;;;;;;;-5.40;100.00;98107.66;4500172;31;20108;-72
2024/01/14 06:59:50;;;;;;;22.92;9.80;;;;;;;-5.41;100.00;98105.97;4500393;31;20087;-72
2024/01/14 07:02:18;;;;;;;23.38;8.85;;;;;;;-5.46;100.00;98110.44;4500206;31;20091;-72
2024/01/14 07:04:46;;;;;;;30.65;10.63;;;;;;;-5.57;100.00;98113.31;4500211;31;20148;-72
2024/01/14 07:07:14;;;;;;;25.80;10.38;;;;;;;-5.63;100.00;98104.19;4500063;31;20675;-72
2024/01/14 07:09:44;;;;;;;27.58;10.73;;;;;;;-5.58;100.00;98104.03;4500251;31;20084;-72
2024/01/14 07:12:11;;;;;;;34.00;11.12;;;;;;;-5.59;100.00;98108.28;4500197;31;20176;-72
2024/01/14 07:14:40;;;;;;;26.95;9.45;;;;;;;-5.59;100.00;98113.38;4500357;31;20084;-72
2024/01/14 07:17:08;;;;;;;27.52;11.25;;;;;;;-5.60;100.00;98113.44;4500116;31;20114;-72
2024/01/14 07:19:35;;;;;;;28.85;10.88;;;;;;;-5.57;100.00;98111.63;4486372;31;20105;-72
2024/01/14 07:22:04;;;;;;;37.22;10.90;;;;;;;-5.52;100.00;98101.25;4484424;32;20084;-72
2024/01/14 07:24:33;;;;;;;23.25;9.30;;;;;;;-5.42;100.00;98099.19;4484255;31;20077;-72
2024/01/14 07:27:02;;;;;;;30.45;11.60;;;;;;;-5.47;100.00;98096.81;4482811;32;20089;-72
2024/01/14 07:29:30;;;;;;;32.53;10.85;;;;;;;-5.46;100.00;98105.31;4486711;31;20122;-72
2024/01/14 07:31:57;;;;;;;28.95;10.52;;;;;;;-5.47;100.00;98101.09;4499980;31;20091;-72
2024/01/14 07:34:26;;;;;;;35.33;11.38;;;;;;;-5.48;100.00;98107.94;4499657;31;20105;-72
2024/01/14 07:36:53;;;;;;;39.15;11.82;;;;;;;-5.45;100.00;98119.72;4499898;31;20084;-72
2024/01/14 07:39:20;;;;;;;29.67;9.25;;;;;;;-5.38;100.00;98110.97;4498823;31;20168;-72
2024/01/14 07:41:48;;;;;;;36.08;13.32;;;;;;;-5.39;100.00;98110.16;4499620;31;20167;-72
2024/01/14 07:44:18;;;;;;;28.52;11.27;;;;;;;-5.38;100.00;98113.53;4499661;31;20092;-72
2024/01/14 07:46:45;;;;;;;45.65;14.70;;;;;;;-5.41;100.00;98109.34;4499574;31;20488;-72
2024/01/14 07:49:13;;;;;;;33.25;13.45;;;;;;;-5.46;100.00;98100.22;4499857;31;20100;-72
2024/01/14 07:51:40;;;;;;;37.47;13.10;;;;;;;-5.40;100.00;98112.75;4499564;31;20482;-72
2024/01/14 07:54:08;;;;;;;34.17;13.30;;;;;;;-5.41;100.00;98111.09;4499537;31;20083;-72
2024/01/14 07:56:35;;;;;;;27.77;13.80;;;;;;;-5.37;100.00;98117.75;4500960;31;20099;-72
2024/01/14 07:59:03;;;;;;;36.75;14.20;;;;;;;-5.37;100.00;98121.13;4501657;31;20096;-72
2024/01/14 08:01:30;;;;;;;37.47;13.07;;;;;;;-5.41;100.00;98116.19;4501614;31;20088;-72
2024/01/14 08:03:58;;;;;;;39.45;13.68;;;;;;;-5.36;100.00;98109.19;4501466;31;20436;-72
2024/01/14 08:06:26;;;;;;;33.63;12.20;;;;;;;-5.33;100.00;98109.09;4501357;31;20084;-72
2024/01/14 08:08:54;;;;;;;28.08;11.18;;;;;;;-5.23;100.00;98110.44;4501569;31;20100;-72
2024/01/14 08:11:21;;;;;;;37.45;10.93;;;;;;;-5.18;100.00;98118.78;4501668;31;20549;-72
2024/01/14 08:13:49;;;;;;;43.97;14.02;;;;;;;-5.05;100.00;98123.44;4501758;31;20100;-72
2024/01/14 08:16:16;;;;;;;37.72;13.35;;;;;;;-4.99;100.00;98124.03;4500273;31;20147;-72
2024/01/14 08:18:44;;;;;;;33.28;12.57;;;;;;;-4.97;100.00;98130.81;4493078;31;20100;-72
2024/01/14 08:21:11;;;;;;;28.48;12.50;;;;;;;-5.02;100.00;98128.44;4485876;31;20389;-72
2024/01/14 08:23:38;;;;;;;24.27;9.90;;;;;;;-4.99;100.00;98125.75;4485501;31;20453;-72
2024/01/14 08:26:06;;;;;;;36.55;13.30;;;;;;;-4.87;100.00;98122.75;4485809;32;20555;-72
2024/01/14 08:28:35;;;;;;;26.58;11.07;;;;;;;-4.73;100.00;98116.28;4485505;31;20101;-72
2024/01/14 08:31:02;;;;;;;37.15;12.95;;;;;;;-4.49;100.00;98117.91;4498232;31;20588;-72
2024/01/14 08:33:30;;;;;;;32.72;10.52;;;;;;;-4.31;100.00;98120.66;4501536;31;20100;-72
2024/01/14 08:35:57;;;;;;;28.80;10.98;;;;;;;-4.18;100.00;98126.94;4501354;31;20449;-72
2024/01/14 08:38:24;;;;;;;40.08;13.27;;;;;;;-4.08;100.00;98126.56;4501219;31;20095;-72
2024/01/14 08:40:52;;;;;;;34.15;10.35;;;;;;;-4.00;100.00;98130.47;4501389;31;20111;-72
2024/01/14 08:43:19;;;;;;;29.08;11.80;;;;;;;-3.96;100.00;98121.78;4501236;31;20092;-72
2024/01/14 08:45:46;;;;;;;37.35;11.65;;;;;;;-4.09;100.00;98120.59;4501446;31;20116;-72
2024/01/14 08:48:13;;;;;;;33.58;12.30;;;;;;;-4.15;100.00;98139.59;4501332;31;20118;-72
2024/01/14 08:50:41;;;;;;;41.25;14.30;;;;;;;-3.98;100.00;98132.94;4501436;31;20091;-72
2024/01/14 08:53:10;;;;;;;32.83;12.85;;;;;;;-3.78;100.00;98139.84;4501269;31;20157;-72
2024/01/14 08:55:38;;;;;;;46.15;13.27;;;;;;;-3.64;100.00;98136.69;4501173;31;20122;-72
2024/01/14 08:58:06;;;;;;;35.08;13.40;;;;;;;-3.56;100.00;98126.97;4501471;31;20506;-72
2024/01/14 09:00:34;;;;;;;34.80;11.07;;;;;;;-3.39;100.00;98133.94;4501329;31;20405;-72
2024/01/14 09:03:04;;;;;;;40.00;14.07;;;;;;;-3.32;100.00;98132.75;4501366;31;20160;-72
2024/01/14 09:05:31;;;;;;;47.30;13.48;;;;;;;-3.26;100.00;98137.62;4501031;31;20107;-72
2024/01/14 09:07:59;;;;;;;34.40;12.20;;;;;;;-3.15;100.00;98139.75;4501406;31;20095;-72
2024/01/14 09:10:26;;;;;;;32.15;12.27;;;;;;;-3.02;100.00;98134.88;4501147;31;20174;-72
2024/01/14 09:12:56;;;;;;;34.40;12.50;;;;;;;-2.87;100.00;98139.31;4501132;31;20149;-72
2024/01/14 09:15:26;;;;;;;34.92;13.30;;;;;;;-2.89;100.00;98137.75;4501168;31;20126;-72
2024/01/14 09:17:53;;;;;;;33.50;12.45;;;;;;;-2.78;100.00;98129.56;4498297;31;20462;-72
2024/01/14 09:20:21;;;;;;;38.55;12.35;;;;;;;-2.65;100.00;98132.41;4485264;31;20123;-72
2024/01/14 09:22:48;;;;;;;39.30;12.52;;;;;;;-2.55;100.00;98139.59;4485413;31;20096;-72
2024/01/14 09:25:17;;;;;;;45.28;13.07;;;;;;;-2.43;100.00;98135.63;4485162;32;20158;-72
2024/01/14 09:27:44;;;;;;;40.58;14.68;;;;;;;-2.30;100.00;98137.62;4485272;31;20123;-72
2024/01/14 09:30:12;;;;;;;40.70;13.82;;;;;;;-2.28;100.00;98134.09;4492291;31;20095;-72
2024/01/14 09:32:40;;;;;;;39.08;12.32;;;;;;;-2.26;100.00;98139.97;4500936;31;20457;-72
2024/01/14 09:35:09;;;;;;;36.38;13.62;;;;;;;-2.30;100.00;98140.19;4500910;31;20100;-72
2024/01/14 09:37:36;;;;;;;40.75;11.32;;;;;;;-2.04;100.00;98134.66;4500985;31;20096;-72
2024/01/14 09:40:05;;;;;;;29.77;11.93;;;;;;;-1.83;100.00;98134.53;4500850;31;20080;-73
2024/01/14 09:42:38;;;;;;;25.48;9.65;;;;;;;-1.72;100.00;98139.94;4500995;31;20088;-72
2024/01/14 09:45:06;;;;;;;29.17;10.75;;;;;;;-1.79;100.00;98128.31;4500790;31;20096;-72
2024/01/14 09:47:33;;;;;;;28.80;8.80;;;;;;;-1.77;100.00;98123.94;4501150;31;20138;-72
2024/01/14 09:50:02;;;;;;;21.58;9.57;;;;;;;-1.67;100.00;98114.88;4499344;31;20408;-72
2024/01/14 09:52:32;;;;;;;22.27;9.25;;;;;;;-1.57;100.00;98111.84;4499695;31;20148;-72
2024/01/14 09:55:00;;;;;;;32.15;10.77;;;;;;;-1.41;100.00;98102.44;4500687;31;20155;-73
2024/01/14 09:57:30;;;;;;;26.85;10.63;;;;;;;-1.35;100.00;98107.25;4500910;31;20470;-73
2024/01/14 10:00:03;;;;;;;23.98;9.65;;;;;;;-1.22;100.00;98098.94;4499252;31;20485;-73
2024/01/14 10:02:33;;;;;;;29.15;9.50;;;;;;;-1.17;100.00;98094.38;4501065;31;20080;-73
2024/01/14 10:05:01;;;;;;;22.58;8.20;;;;;;;-1.11;100.00;98097.44;4501001;31;20108;-73
2024/01/14 10:07:35;;;;;;;19.65;7.18;;;;;;;-1.06;100.00;98094.63;4500895;31;20475;-73
2024/01/14 10:10:06;;;;;;;19.10;7.50;;;;;;;-1.11;100.00;98094.87;4500482;31;20122;-72
2024/01/14 10:12:34;;;;;;;19.42;7.68;;;;;;;-1.12;100.00;98089.81;4501211;31;20140;-72
2024/01/14 10:15:01;;;;;;;22.92;7.90;;;;;;;-1.11;100.00;98084.59;4499477;31;20607;-73
2024/01/14 10:17:29;;;;;;;22.52;8.73;;;;;;;-1.04;100.00;98086.88;4500708;31;20088;-72
2024/01/14 10:19:58;;;;;;;19.40;7.10;;;;;;;-0.98;100.00;98092.50;4484458;31;20168;-73
2024/01/14 10:22:27;;;;;;;27.37;9.75;;;;;;;-0.87;100.00;98099.62;4485255;31;20088;-73
2024/01/14 10:24:55;;;;;;;23.33;8.93;;;;;;;-0.80;100.00;98088.13;4483710;32;20165;-73
2024/01/14 10:27:25;;;;;;;25.75;9.48;;;;;;;-0.57;100.00;98089.44;4485071;31;20144;-72
2024/01/14 10:30:10;;;;;;;19.35;8.40;;;;;;;-0.44;100.00;98091.31;4490818;31;20096;-73
2024/01/14 10:32:38;;;;;;;;;;;;;;;-0.42;100.00;98092.09;4500911;31;20121;-72
2024/01/14 10:35:27;;;;;;;22.62;7.25;;;;;;;-0.54;100.00;98089.25;4499422;31;20031;-72
2024/01/14 10:37:57;;;;;;;24.75;9.65;;;;;;;-0.37;100.00;98090.06;4500596;31;20129;-73
2024/01/14 10:40:24;;;;;;;26.05;9.73;;;;;;;-0.29;100.00;98082.75;4500418;31;20457;-72
2024/01/14 10:42:52;;;;;;;27.25;9.85;;;;;;;-0.21;100.00;98085.72;4500516;31;20100;-72
2024/01/14 10:45:19;;;;;;;22.15;8.85;;;;;;;-0.20;100.00;98069.38;4500637;31;20096;-72
2024/01/14 10:47:51;;;;;;;22.23;8.55;;;;;;;-0.20;100.00;98074.53;4500445;31;20598;-72
2024/01/14 10:50:23;;;;;;;27.17;9.90;;;;;;;-0.17;100.00;98080.41;4499129;31;20173;-72
2024/01/14 10:52:56;;;;;;;26.55;9.63;;;;;;;0.00;100.00;98072.56;4500688;31;20115;-73
2024/01/14 10:55:45;;;;;;;21.37;6.53;;;;;;;0.02;100.00;98067.34;4500471;31;20160;-72
2024/01/14 10:58:21;;;;;;;26.55;9.15;;;;;;;-0.04;100.00;98064.19;4500423;31;20144;-73
2024/01/14 11:00:50;;;;;;;22.65;8.60;;;;;;;0.03;100.00;98064.66;4498814;31;20096;-73
2024/01/14 11:03:18;;;;;;;21.90;8.68;;;;;;;0.12;100.00;98052.97;4500496;31;20096;-72
2024/01/14 11:05:46;;;;;;;24.23;8.55;;;;;;;0.28;100.00;98051.16;4500239;31;20217;-72
2024/01/14 11:08:16;;;;;;;20.83;7.95;;;;;;;0.23;100.00;98039.47;4500132;31;20389;-72
2024/01/14 11:10:44;;;;;;;17.08;6.95;;;;;;;0.31;100.00;98042.44;4498885;31;20114;-73
2024/01/14 11:13:52;;;;;;;16.15;6.80;;;;;;;0.36;100.00;98037.84;4500386;31;20104;-72
2024/01/14 11:16:23;;;;;;;17.12;6.35;;;;;;;0.50;100.00;98035.28;4498930;31;20775;-72